createdAt,value
2018-12-19T00:01:37.989Z,0.30
2018-12-19T00:06:33.047Z,0.70
2018-12-19T00:09:03.373Z,0.70
2018-12-19T00:11:30.059Z,0.60
2018-12-19T00:13:57.556Z,0.60
2018-12-19T00:16:25.049Z,0.70
2018-12-19T00:18:52.599Z,0.60
2018-12-19T00:23:48.635Z,0.80
2018-12-19T00:26:16.116Z,0.70
2018-12-19T00:28:43.613Z,0.60
2018-12-19T00:31:11.093Z,0.60
2018-12-19T00:33:38.593Z,0.50
2018-12-19T00:36:06.082Z,0.60
2018-12-19T00:41:01.070Z,0.80
2018-12-19T00:43:28.576Z,0.50
2018-12-19T00:45:56.133Z,0.30
2018-12-19T00:48:23.635Z,0.00
2018-12-19T00:50:51.159Z,0.70
2018-12-19T00:53:18.642Z,0.20
2018-12-19T00:55:46.135Z,0.40
2018-12-19T00:58:13.616Z,0.10
2018-12-19T01:00:41.113Z,0.80
2018-12-19T01:03:08.627Z,0.90
2018-12-19T01:05:36.150Z,0.20
2018-12-19T01:08:03.720Z,0.30
2018-12-19T01:10:31.479Z,0.00
2018-12-19T01:12:59.025Z,0.20
2018-12-19T01:15:26.515Z,0.40
2018-12-19T01:17:54.005Z,0.30
2018-12-19T01:22:48.989Z,0.60
2018-12-19T01:25:16.490Z,0.40
2018-12-19T01:27:44.007Z,-0.10
2018-12-19T01:30:11.581Z,0.30
2018-12-19T01:32:39.070Z,0.30
2018-12-19T01:35:06.580Z,0.40
2018-12-19T01:37:35.350Z,0.40
2018-12-19T01:40:05.909Z,0.30
2018-12-19T01:42:33.395Z,0.40
2018-12-19T01:45:00.886Z,0.40
2018-12-19T01:47:28.456Z,0.50
2018-12-19T01:49:55.984Z,0.40
2018-12-19T01:52:23.481Z,0.40
2018-12-19T01:54:50.976Z,0.50
2018-12-19T01:57:18.460Z,0.60
2018-12-19T01:59:45.966Z,0.20
2018-12-19T02:02:13.531Z,0.30
2018-12-19T02:04:41.032Z,0.30
2018-12-19T02:07:08.514Z,0.20
2018-12-19T02:09:35.995Z,0.20
2018-12-19T02:12:03.501Z,0.10
2018-12-19T02:14:30.997Z,0.10
2018-12-19T02:16:58.497Z,0.20
2018-12-19T02:19:25.988Z,0.50
2018-12-19T02:21:53.482Z,0.30
2018-12-19T02:24:21.145Z,0.30
2018-12-19T02:26:48.631Z,0.50
2018-12-19T02:29:16.138Z,0.10
2018-12-19T02:31:43.743Z,0.20
2018-12-19T02:34:11.352Z,0.10
2018-12-19T02:36:39.125Z,0.00
2018-12-19T02:39:07.111Z,0.00
2018-12-19T02:41:34.620Z,-0.10
2018-12-19T02:44:02.444Z,0.00
2018-12-19T02:46:29.938Z,0.00
2018-12-19T02:48:57.432Z,-0.10
2018-12-19T02:51:24.929Z,-0.10
2018-12-19T02:53:52.418Z,-0.30
2018-12-19T02:56:19.904Z,-0.20
2018-12-19T02:58:47.406Z,-0.30
2018-12-19T03:01:14.903Z,-0.20
2018-12-19T03:03:42.392Z,-0.10
2018-12-19T03:06:09.955Z,-0.20
2018-12-19T03:08:37.445Z,-0.10
2018-12-19T03:13:32.802Z,0.10
2018-12-19T03:16:00.297Z,0.10
2018-12-19T03:18:27.786Z,0.00
2018-12-19T03:20:55.285Z,0.50
2018-12-19T03:23:22.806Z,0.00
2018-12-19T03:25:50.297Z,-0.30
2018-12-19T03:28:17.843Z,-0.20
2018-12-19T03:30:45.360Z,-0.30
2018-12-19T03:33:12.857Z,-0.30
2018-12-19T03:38:07.844Z,-0.30
2018-12-19T03:40:35.365Z,-0.60
2018-12-19T03:43:02.870Z,-0.40
2018-12-19T03:45:30.371Z,-0.50
2018-12-19T03:47:57.892Z,-0.50
2018-12-19T03:50:25.407Z,-0.60
2018-12-19T03:52:52.930Z,-0.50
2018-12-19T03:55:20.446Z,-0.50
2018-12-19T03:57:48.006Z,-0.50
2018-12-19T04:00:15.511Z,-0.50
2018-12-19T04:02:43.019Z,-0.40
2018-12-19T04:05:10.520Z,-0.30
2018-12-19T04:07:38.032Z,-0.10
2018-12-19T04:12:33.080Z,-0.30
2018-12-19T04:15:00.590Z,-0.30
2018-12-19T04:17:28.100Z,-0.50
2018-12-19T04:19:55.602Z,-2.40
2018-12-19T04:22:23.112Z,-0.30
2018-12-19T04:24:50.600Z,-0.40
2018-12-19T04:27:18.087Z,-0.40
2018-12-19T04:29:45.948Z,-0.40
2018-12-19T04:32:13.523Z,-0.40
2018-12-19T04:34:41.018Z,0.00
2018-12-19T04:37:08.524Z,-0.40
2018-12-19T04:39:36.022Z,-0.30
2018-12-19T04:42:03.520Z,-0.10
2018-12-19T04:44:31.052Z,0.00
2018-12-19T04:46:58.606Z,0.30
2018-12-19T04:51:53.609Z,0.30
2018-12-19T04:54:21.095Z,0.10
2018-12-19T04:56:48.598Z,0.10
2018-12-19T04:59:16.080Z,0.10
2018-12-19T05:01:43.582Z,0.10
2018-12-19T05:04:11.082Z,0.00
2018-12-19T05:06:38.587Z,0.00
2018-12-19T05:09:06.932Z,-0.20
2018-12-19T05:11:34.692Z,0.00
2018-12-19T05:14:02.206Z,0.00
2018-12-19T05:16:29.708Z,0.00
2018-12-19T05:18:57.191Z,-0.10
2018-12-19T05:21:24.677Z,0.00
2018-12-19T05:23:52.180Z,-0.10
2018-12-19T05:26:19.674Z,-0.10
2018-12-19T05:28:47.178Z,-0.10
2018-12-19T05:31:14.667Z,0.00
2018-12-19T05:33:42.156Z,0.00
2018-12-19T05:36:09.637Z,0.00
2018-12-19T05:38:37.126Z,-0.10
2018-12-19T05:41:04.616Z,-0.20
2018-12-19T05:43:32.111Z,-0.10
2018-12-19T05:45:59.602Z,-0.30
2018-12-19T05:48:27.097Z,-0.30
2018-12-19T05:50:54.599Z,-0.30
2018-12-19T05:53:22.097Z,0.00
2018-12-19T05:55:49.601Z,-0.20
2018-12-19T05:58:17.115Z,-0.20
2018-12-19T06:00:44.606Z,-0.20
2018-12-19T06:03:12.109Z,-0.30
2018-12-19T06:05:39.733Z,-0.70
2018-12-19T06:08:07.245Z,-0.60
2018-12-19T06:10:34.741Z,-0.50
2018-12-19T06:13:02.319Z,-0.60
2018-12-19T06:15:29.843Z,-0.70
2018-12-19T06:17:57.359Z,-0.70
2018-12-19T06:22:52.383Z,-0.80
2018-12-19T06:25:19.896Z,-0.80
2018-12-19T06:30:16.443Z,-0.70
2018-12-19T06:32:44.021Z,-0.80
2018-12-19T06:35:11.606Z,-0.80
2018-12-19T06:37:39.095Z,-0.60
2018-12-19T06:40:07.939Z,-0.80
2018-12-19T06:42:35.526Z,-0.50
2018-12-19T06:45:03.191Z,-0.80
2018-12-19T06:47:30.705Z,-0.80
2018-12-19T06:49:58.195Z,-1.10
2018-12-19T06:52:25.705Z,-0.90
2018-12-19T06:54:53.439Z,-1.30
2018-12-19T06:57:20.939Z,-0.80
2018-12-19T06:59:48.445Z,-0.80
2018-12-19T07:02:15.951Z,-0.70
2018-12-19T07:04:43.461Z,-0.50
2018-12-19T07:07:10.959Z,-0.80
2018-12-19T07:09:38.496Z,-0.90
2018-12-19T07:12:06.077Z,-1.00
2018-12-19T07:14:33.579Z,-0.90
2018-12-19T07:17:01.104Z,-0.90
2018-12-19T07:19:28.617Z,-0.80
2018-12-19T07:21:56.124Z,-0.60
2018-12-19T07:24:23.641Z,-0.80
2018-12-19T07:26:51.215Z,-0.80
2018-12-19T07:29:18.713Z,-0.60
2018-12-19T07:31:46.331Z,-0.60
2018-12-19T07:34:13.827Z,-0.60
2018-12-19T07:36:41.318Z,-0.70
2018-12-19T07:39:08.838Z,-0.50
2018-12-19T07:41:36.328Z,-0.50
2018-12-19T07:44:03.903Z,-0.40
2018-12-19T07:46:31.516Z,-0.60
2018-12-19T07:48:59.008Z,-0.20
2018-12-19T07:51:26.516Z,-0.50
2018-12-19T07:53:54.021Z,-0.50
2018-12-19T07:56:21.551Z,-0.50
2018-12-19T07:58:49.047Z,-0.20
2018-12-19T08:01:17.439Z,-0.20
2018-12-19T08:03:45.189Z,-0.30
2018-12-19T08:06:12.689Z,-0.10
2018-12-19T08:08:40.198Z,-0.10
2018-12-19T08:11:07.688Z,-0.70
2018-12-19T08:13:35.208Z,-0.10
2018-12-19T08:16:02.701Z,-0.40
2018-12-19T08:18:30.224Z,-0.30
2018-12-19T08:20:57.721Z,-0.30
2018-12-19T08:23:25.217Z,-0.10
2018-12-19T08:25:52.723Z,-0.20
2018-12-19T08:28:20.235Z,-0.20
2018-12-19T08:30:47.744Z,-0.10
2018-12-19T08:33:15.489Z,-0.10
2018-12-19T08:35:42.990Z,-0.10
2018-12-19T08:38:10.491Z,-0.10
2018-12-19T08:40:37.985Z,0.00
2018-12-19T08:43:05.498Z,0.00
2018-12-19T08:45:33.466Z,-0.10
2018-12-19T08:48:00.969Z,-0.10
2018-12-19T08:50:28.478Z,-0.10
2018-12-19T08:52:55.980Z,-0.10
2018-12-19T08:55:23.478Z,-0.10
2018-12-19T08:57:50.976Z,0.00
2018-12-19T09:00:18.489Z,0.10
2018-12-19T09:02:46.266Z,0.20
2018-12-19T09:05:13.768Z,0.40
2018-12-19T09:07:41.316Z,0.40
2018-12-19T09:10:08.872Z,0.40
2018-12-19T09:12:36.360Z,0.30
2018-12-19T09:15:05.115Z,0.30
2018-12-19T09:17:32.657Z,0.50
2018-12-19T09:20:00.521Z,0.60
2018-12-19T09:22:28.086Z,0.60
2018-12-19T09:24:55.650Z,0.70
2018-12-19T09:27:23.136Z,0.80
2018-12-19T09:29:50.618Z,0.80
2018-12-19T09:32:18.115Z,0.70
2018-12-19T09:34:45.619Z,0.60
2018-12-19T09:37:13.120Z,0.40
2018-12-19T09:39:40.610Z,0.50
2018-12-19T09:42:08.096Z,0.40
2018-12-19T09:44:35.594Z,0.50
2018-12-19T09:47:03.115Z,0.50
2018-12-19T09:49:30.617Z,0.70
2018-12-19T09:51:58.120Z,0.90
2018-12-19T09:54:25.651Z,0.70
2018-12-19T09:56:53.527Z,0.90
2018-12-19T09:59:21.152Z,1.10
2018-12-19T10:01:49.574Z,1.00
2018-12-19T10:04:17.110Z,1.00
2018-12-19T10:06:44.596Z,1.00
2018-12-19T10:09:15.007Z,1.10
2018-12-19T10:11:41.652Z,1.30
2018-12-19T10:14:09.170Z,1.30
2018-12-19T10:16:36.658Z,1.30
2018-12-19T10:19:04.142Z,1.40
2018-12-19T10:21:32.192Z,1.40
2018-12-19T10:23:59.685Z,1.40
2018-12-19T10:26:27.200Z,1.80
2018-12-19T10:28:54.694Z,1.60
2018-12-19T10:31:22.180Z,1.70
2018-12-19T10:33:49.726Z,1.50
2018-12-19T10:36:19.198Z,1.50
2018-12-19T10:38:46.712Z,1.90
2018-12-19T10:41:14.671Z,1.60
2018-12-19T10:43:42.160Z,1.80
2018-12-19T10:46:09.676Z,2.20
2018-12-19T10:48:37.209Z,2.50
2018-12-19T10:51:04.804Z,2.60
2018-12-19T10:53:33.772Z,2.30
2018-12-19T10:56:01.541Z,2.30
2018-12-19T10:58:29.115Z,2.10
2018-12-19T11:00:59.622Z,2.20
2018-12-19T11:03:27.198Z,2.20
2018-12-19T11:05:54.725Z,2.40
2018-12-19T11:08:22.261Z,2.00
2018-12-19T11:10:49.754Z,2.20
2018-12-19T11:13:18.328Z,1.90
2018-12-19T11:18:13.375Z,2.10
2018-12-19T11:20:40.967Z,2.20
2018-12-19T11:23:08.506Z,2.10
2018-12-19T11:25:36.008Z,2.10
2018-12-19T11:28:03.585Z,2.00
2018-12-19T11:30:31.206Z,2.00
2018-12-19T11:32:58.721Z,1.50
2018-12-19T11:35:26.219Z,1.80
2018-12-19T11:37:53.776Z,2.00
2018-12-19T11:40:21.281Z,2.00
2018-12-19T11:42:48.775Z,1.90
2018-12-19T11:45:16.269Z,2.20
2018-12-19T11:47:43.852Z,2.20
2018-12-19T11:50:11.401Z,2.10
2018-12-19T11:52:38.910Z,2.20
2018-12-19T11:55:06.555Z,2.30
2018-12-19T11:57:34.508Z,2.40
2018-12-19T12:00:02.219Z,2.30
2018-12-19T12:02:29.717Z,2.40
2018-12-19T12:04:57.211Z,2.50
2018-12-19T12:07:24.769Z,2.30
2018-12-19T12:09:52.281Z,2.30
2018-12-19T12:12:19.771Z,2.40
2018-12-19T12:14:47.278Z,2.40
2018-12-19T12:17:14.776Z,2.40
2018-12-19T12:19:42.285Z,2.40
2018-12-19T12:22:09.772Z,2.50
2018-12-19T12:24:37.372Z,2.40
2018-12-19T12:27:04.876Z,2.30
2018-12-19T12:29:32.400Z,2.20
2018-12-19T12:32:00.019Z,2.20
2018-12-19T12:34:27.512Z,2.40
2018-12-19T12:36:55.025Z,2.30
2018-12-19T12:39:22.532Z,2.20
2018-12-19T12:41:52.447Z,2.30
2018-12-19T12:44:19.550Z,2.30
2018-12-19T12:46:47.029Z,2.20
2018-12-19T12:49:14.528Z,2.30
2018-12-19T12:51:42.025Z,2.20
2018-12-19T12:54:09.511Z,2.20
2018-12-19T12:56:37.006Z,2.20
2018-12-19T12:59:04.499Z,2.10
2018-12-19T13:01:31.993Z,1.70
2018-12-19T13:03:59.490Z,2.00
2018-12-19T13:06:27.055Z,2.00
2018-12-19T13:08:54.565Z,1.90
2018-12-19T13:11:22.946Z,1.80
2018-12-19T13:13:50.441Z,1.60
2018-12-19T13:16:18.002Z,1.50
2018-12-19T13:18:45.511Z,1.50
2018-12-19T13:21:13.009Z,1.60
2018-12-19T13:23:40.495Z,1.60
2018-12-19T13:26:08.092Z,1.40
2018-12-19T13:28:35.601Z,1.40
2018-12-19T13:31:03.123Z,1.40
2018-12-19T13:33:30.614Z,1.40
2018-12-19T13:35:58.111Z,1.40
2018-12-19T13:38:25.601Z,1.50
2018-12-19T13:40:53.097Z,1.20
2018-12-19T13:43:20.593Z,1.40
2018-12-19T13:45:48.083Z,1.30
2018-12-19T13:48:15.601Z,1.30
2018-12-19T13:50:43.119Z,1.40
2018-12-19T13:53:10.618Z,1.40
2018-12-19T13:55:38.143Z,1.60
2018-12-19T13:58:07.194Z,1.50
2018-12-19T14:00:35.006Z,1.40
2018-12-19T14:03:02.505Z,1.30
2018-12-19T14:05:29.998Z,1.40
2018-12-19T14:07:57.562Z,1.40
2018-12-19T14:10:25.061Z,1.40
2018-12-19T14:12:52.555Z,1.40
2018-12-19T14:15:21.327Z,1.30
2018-12-19T14:17:48.845Z,1.50
2018-12-19T14:20:16.348Z,1.50
2018-12-19T14:22:43.851Z,1.50
2018-12-19T14:25:11.439Z,1.50
2018-12-19T14:27:38.951Z,1.50
2018-12-19T14:30:08.440Z,1.60
2018-12-19T14:32:35.941Z,1.50
2018-12-19T14:35:03.796Z,1.40
2018-12-19T14:37:31.311Z,1.30
2018-12-19T14:39:58.829Z,1.70
2018-12-19T14:42:26.337Z,1.40
2018-12-19T14:44:53.831Z,1.40
2018-12-19T14:47:21.337Z,1.40
2018-12-19T14:49:48.851Z,1.50
2018-12-19T14:52:16.369Z,1.20
2018-12-19T14:57:11.404Z,1.60
2018-12-19T14:59:38.928Z,1.60
2018-12-19T15:02:06.428Z,1.70
2018-12-19T15:04:34.016Z,1.50
2018-12-19T15:09:29.331Z,1.50
2018-12-19T15:14:24.698Z,1.60
2018-12-19T15:16:52.327Z,1.50
2018-12-19T15:19:20.060Z,1.50
2018-12-19T15:21:47.594Z,1.60
2018-12-19T15:24:15.104Z,1.60
2018-12-19T15:26:42.689Z,1.40
2018-12-19T15:29:10.245Z,1.20
2018-12-19T15:31:37.752Z,1.20
2018-12-19T15:34:05.251Z,1.20
2018-12-19T15:36:33.051Z,1.20
2018-12-19T15:39:00.606Z,0.90
2018-12-19T15:41:28.228Z,1.10
2018-12-19T15:43:56.627Z,1.10
2018-12-19T15:46:24.682Z,1.20
2018-12-19T15:48:52.222Z,1.00
2018-12-19T15:51:19.789Z,1.00
2018-12-19T15:53:47.381Z,0.90
2018-12-19T16:01:10.288Z,0.70
2018-12-19T16:03:37.856Z,0.80
2018-12-19T16:06:05.394Z,0.90
2018-12-19T16:08:33.409Z,0.70
2018-12-19T16:11:00.930Z,0.70
2018-12-19T16:15:56.771Z,0.80
2018-12-19T16:18:24.321Z,0.80
2018-12-19T16:20:51.853Z,0.60
2018-12-19T16:23:19.403Z,0.60
2018-12-19T16:25:46.946Z,0.70
2018-12-19T16:28:14.504Z,1.20
2018-12-19T16:30:42.660Z,0.90
2018-12-19T16:33:10.589Z,0.80
2018-12-19T16:35:38.122Z,0.30
2018-12-19T16:38:06.108Z,0.50
2018-12-19T16:40:34.010Z,0.40
2018-12-19T16:43:01.546Z,0.40
2018-12-19T16:45:29.078Z,0.50
2018-12-19T16:47:56.620Z,0.30
2018-12-19T16:50:24.155Z,0.40
2018-12-19T16:52:51.754Z,0.40
2018-12-19T16:55:19.308Z,0.40
2018-12-19T16:57:47.216Z,0.30
2018-12-19T17:00:17.416Z,0.50
2018-12-19T17:02:44.985Z,0.40
2018-12-19T17:05:12.555Z,0.80
2018-12-19T17:07:40.072Z,0.50
2018-12-19T17:10:07.764Z,0.60
2018-12-19T17:12:37.004Z,0.30
2018-12-19T17:15:04.823Z,0.40
2018-12-19T17:17:32.341Z,0.60
2018-12-19T17:19:59.860Z,0.60
2018-12-19T17:22:27.416Z,0.40
2018-12-19T17:24:54.953Z,0.50
2018-12-19T17:27:22.586Z,0.50
2018-12-19T17:29:50.111Z,0.70
2018-12-19T17:32:18.163Z,-0.10
2018-12-19T17:34:45.876Z,0.40
2018-12-19T17:37:13.488Z,0.50
2018-12-19T17:42:08.593Z,0.00
2018-12-19T17:44:36.417Z,0.60
2018-12-19T17:47:05.655Z,0.50
2018-12-19T17:49:33.241Z,0.50
2018-12-19T17:52:00.743Z,0.50
2018-12-19T17:54:28.928Z,0.90
2018-12-19T17:56:56.869Z,0.90
2018-12-19T17:59:25.589Z,0.80
2018-12-19T18:01:54.005Z,0.90
2018-12-19T18:04:23.273Z,1.00
2018-12-19T18:06:50.926Z,0.90
2018-12-19T18:09:19.267Z,0.80
2018-12-19T18:11:47.336Z,0.70
2018-12-19T18:14:15.549Z,0.90
2018-12-19T18:16:43.103Z,0.80
2018-12-19T18:19:10.628Z,0.90
2018-12-19T18:21:39.765Z,1.00
2018-12-19T18:24:07.371Z,1.00
2018-12-19T18:26:34.950Z,1.00
2018-12-19T18:29:04.232Z,1.00
2018-12-19T18:31:36.041Z,1.00
2018-12-19T18:34:04.279Z,1.00
2018-12-19T18:36:32.632Z,0.90
2018-12-19T18:39:01.957Z,0.90
2018-12-19T18:41:30.934Z,0.90
2018-12-19T18:43:59.422Z,0.90
2018-12-19T18:46:27.291Z,0.90
2018-12-19T18:48:55.864Z,0.90
2018-12-19T18:51:23.409Z,0.50
2018-12-19T18:53:55.517Z,0.60
2018-12-19T18:56:24.407Z,0.60
2018-12-19T18:58:52.917Z,0.10
2018-12-19T19:01:22.141Z,0.20
2018-12-19T19:03:51.812Z,0.20
2018-12-19T19:06:21.228Z,-0.30
2018-12-19T19:08:48.824Z,-0.30
2018-12-19T19:11:19.312Z,-0.20
2018-12-19T19:13:49.108Z,-0.40
2018-12-19T19:16:16.672Z,-0.50
2018-12-19T19:18:45.434Z,-0.60
2018-12-19T19:21:12.990Z,-0.60
2018-12-19T19:23:41.020Z,-0.50
2018-12-19T19:26:08.786Z,-0.90
2018-12-19T19:28:36.425Z,-0.70
2018-12-19T19:31:04.030Z,-0.60
2018-12-19T19:33:32.328Z,-0.80
2018-12-19T19:36:00.192Z,-0.90
2018-12-19T19:38:27.854Z,-0.30
2018-12-19T19:40:55.455Z,-0.60
2018-12-19T19:43:26.685Z,-0.70
2018-12-19T19:45:54.399Z,-0.70
2018-12-19T19:48:24.374Z,-0.80
2018-12-19T19:50:51.913Z,-0.70
2018-12-19T19:53:20.513Z,-0.30
2018-12-19T19:55:49.364Z,-0.70
2018-12-19T19:58:16.938Z,-0.50
2018-12-19T20:00:44.827Z,-0.60
2018-12-19T20:03:12.384Z,-0.60
2018-12-19T20:05:40.480Z,-0.60
2018-12-19T20:08:10.056Z,-0.80
2018-12-19T20:10:39.945Z,-0.70
2018-12-19T20:13:09.487Z,-0.60
2018-12-19T20:15:38.435Z,-1.10
2018-12-19T20:18:07.345Z,-0.50
2018-12-19T20:20:34.941Z,-0.90
2018-12-19T20:25:32.741Z,-0.70
2018-12-19T20:28:00.325Z,-1.00
2018-12-19T20:30:28.325Z,-0.90
2018-12-19T20:32:57.266Z,-0.90
2018-12-19T20:35:24.951Z,-0.70
2018-12-19T20:37:53.137Z,-0.80
2018-12-19T20:40:20.712Z,-0.50
2018-12-19T20:42:49.167Z,-0.60
2018-12-19T20:45:18.587Z,-0.70
2018-12-19T20:47:46.520Z,-0.60
2018-12-19T20:50:16.512Z,-0.50
2018-12-19T20:52:46.035Z,-0.60
2018-12-19T20:57:44.641Z,-0.70
2018-12-19T21:00:16.336Z,-0.60
2018-12-19T21:02:45.869Z,-0.80
2018-12-19T21:07:41.987Z,-0.70
2018-12-19T21:10:12.427Z,-0.60
2018-12-19T21:12:40.005Z,-0.50
2018-12-19T21:15:09.003Z,-0.50
2018-12-19T21:17:42.287Z,0.10
2018-12-19T21:20:10.029Z,-0.70
2018-12-19T21:22:38.233Z,-0.40
2018-12-19T21:25:07.638Z,-0.60
2018-12-19T21:30:05.213Z,-0.50
2018-12-19T21:32:33.115Z,-0.40
2018-12-19T21:35:01.465Z,-0.40
2018-12-19T21:37:29.012Z,-0.40
2018-12-19T21:39:59.513Z,-0.40
2018-12-19T21:42:29.801Z,-0.50
2018-12-19T21:44:57.385Z,0.00
2018-12-19T21:47:25.382Z,0.90
2018-12-19T21:49:53.887Z,-0.20
2018-12-19T21:52:23.058Z,-0.40
2018-12-19T21:57:19.139Z,-0.80
2018-12-19T21:59:47.170Z,-0.60
2018-12-19T22:02:14.904Z,-0.70
2018-12-19T22:04:42.589Z,-0.60
2018-12-19T22:07:10.110Z,-0.90
2018-12-19T22:12:06.610Z,-0.60
2018-12-19T22:14:34.218Z,-0.30
2018-12-19T22:17:07.474Z,-0.40
2018-12-19T22:19:35.453Z,-0.30
2018-12-19T22:22:04.025Z,-0.20
2018-12-19T22:24:31.620Z,-0.10
2018-12-19T22:26:59.165Z,-0.10
2018-12-19T22:29:26.686Z,-0.30
2018-12-19T22:31:54.316Z,-0.20
2018-12-19T22:34:21.888Z,-0.10
2018-12-19T22:36:50.289Z,-0.20
2018-12-19T22:41:46.371Z,-0.30
2018-12-19T22:44:14.055Z,-0.10
2018-12-19T22:46:41.691Z,-0.10
2018-12-19T22:49:09.303Z,-0.10
2018-12-19T22:51:36.855Z,-0.30
2018-12-19T22:54:04.477Z,-0.30
2018-12-19T22:56:32.077Z,-0.40
2018-12-19T22:58:59.711Z,-0.30
2018-12-19T23:01:33.109Z,-0.30
2018-12-19T23:04:06.996Z,-0.40
2018-12-19T23:06:35.090Z,-0.40
2018-12-19T23:11:32.273Z,-0.20
2018-12-19T23:13:59.896Z,-0.20
2018-12-19T23:16:27.934Z,-0.30
2018-12-19T23:18:55.510Z,-0.20
2018-12-19T23:21:23.103Z,-0.40
2018-12-19T23:23:50.609Z,-0.10
2018-12-19T23:26:18.133Z,-0.10
2018-12-19T23:28:45.702Z,-0.10
2018-12-19T23:31:13.294Z,0.00
2018-12-19T23:33:40.889Z,-0.30
2018-12-19T23:38:46.149Z,-0.60
2018-12-19T23:41:13.665Z,-0.70
2018-12-19T23:43:41.350Z,-0.70
2018-12-19T23:46:08.863Z,-0.50
2018-12-19T23:48:36.393Z,-0.80
2018-12-19T23:51:03.989Z,-0.80
2018-12-19T23:53:31.512Z,-0.90
2018-12-19T23:56:00.874Z,-0.80
2018-12-19T23:58:28.709Z,-0.90
